Mabou, Canada
Current Conditions -  °F | °C
As of 6:00 PM on Sunday 23 Nov 2014 (Local Time) from CYPD Reporting Station
Few Clouds Few Clouds  
Wind Chill: 33°   Ceiling: Unl
Heat Index: 39°   Visibility: 9mi
Dew Point: 30°   Wind: 9mph
Humidity: 70%   Direction: 300°WNW
Pressure: 30.09"   Gusts: 18mph
Location:  46.07°N, 61.37°W
Report Text: CYPD 232200Z AUTO 30008G16KT 9SM FEW029 04/M01 A3009 RMK PRESRR SLP194
Loading
Personal Weather Stations






























Interactive Weather Map New forecast layout! Learn more

10-Day Weather Forecast

Advertisements
Track Severe Weather on mobile